Time;durP1;ratioP1;P1;durP2;ratioP2;P2;SDS_P1;SDS_P2;PMS_P1;PMS_P2;Temp;Humidity;BMP_temperature;BMP_pressure;BME280_temperature;BME280_humidity;BME280_pressure;Samples;Min_cycle;Max_cycle;Signal;HPM_P1;HPM_P2
2022/08/24 00:00:13;;;;;;;3.22;2.22;;;18.90;99.90;;;;;;5023302;28;20282;-62
2022/08/24 00:02:41;;;;;;;3.17;2.47;;;18.80;99.90;;;;;;5023677;28;20215;-63
2022/08/24 00:05:09;;;;;;;2.50;2.30;;;18.70;99.90;;;;;;5023897;28;20203;-63
2022/08/24 00:07:37;;;;;;;6.38;2.30;;;18.60;99.90;;;;;;5024214;28;20587;-62
2022/08/24 00:10:08;;;;;;;3.95;2.20;;;18.60;99.90;;;;;;5023745;28;20230;-63
2022/08/24 00:12:35;;;;;;;3.47;2.38;;;18.50;99.90;;;;;;5022944;28;20283;-63
2022/08/24 00:15:03;;;;;;;3.88;2.60;;;18.40;99.90;;;;;;5022857;28;20265;-63
2022/08/24 00:17:30;;;;;;;4.30;2.53;;;18.40;99.90;;;;;;5022190;28;20227;-63
2022/08/24 00:19:58;;;;;;;3.95;2.30;;;18.30;99.90;;;;;;5022228;28;20206;-62
2022/08/24 00:22:25;;;;;;;4.43;2.45;;;18.40;99.90;;;;;;5019887;28;20215;-66
2022/08/24 00:24:52;;;;;;;4.30;2.20;;;18.30;99.90;;;;;;5017919;28;20203;-63
2022/08/24 00:27:20;;;;;;;2.83;2.50;;;18.40;99.90;;;;;;5017319;28;20227;-63
2022/08/24 00:29:47;;;;;;;3.55;2.25;;;18.30;99.90;;;;;;5017549;28;20687;-63
2022/08/24 00:32:14;;;;;;;5.13;1.95;;;18.40;99.90;;;;;;5016414;28;20203;-63
2022/08/24 00:34:41;;;;;;;3.60;2.40;;;18.40;99.90;;;;;;5016044;28;20629;-63
2022/08/24 00:37:08;;;;;;;3.88;2.55;;;18.40;99.90;;;;;;5016574;28;20199;-63
2022/08/24 00:39:34;;;;;;;5.00;2.45;;;18.30;99.90;;;;;;5015848;28;20298;-63
2022/08/24 00:42:01;;;;;;;2.80;2.25;;;18.30;99.90;;;;;;5016268;28;20652;-62
2022/08/24 00:44:30;;;;;;;4.00;2.60;;;18.30;99.90;;;;;;5016845;28;20230;-63
2022/08/24 00:47:01;;;;;;;5.90;2.33;;;18.30;99.90;;;;;;5017338;28;20241;-63
2022/08/24 00:49:37;;;;;;;4.00;2.40;;;18.30;99.90;;;;;;5017029;28;20245;-63
2022/08/24 00:52:11;;;;;;;2.67;2.45;;;18.20;99.90;;;;;;5016766;28;20213;-63
2022/08/24 00:54:42;;;;;;;4.10;2.50;;;18.20;99.90;;;;;;5016224;28;20233;-63
2022/08/24 00:57:11;;;;;;;4.65;2.15;;;18.20;99.90;;;;;;5016841;28;20219;-63
2022/08/24 00:59:43;;;;;;;4.07;2.40;;;18.10;99.90;;;;;;5015445;28;20199;-63
2022/08/24 01:02:13;;;;;;;3.55;2.47;;;18.00;99.90;;;;;;5015743;28;20211;-63
2022/08/24 01:04:47;;;;;;;3.72;2.30;;;18.00;99.90;;;;;;5015400;28;20574;-63
2022/08/24 01:07:14;;;;;;;3.53;2.70;;;17.90;99.90;;;;;;5015166;28;20210;-63
2022/08/24 01:09:41;;;;;;;3.42;2.30;;;17.80;99.90;;;;;;5015023;28;20586;-63
2022/08/24 01:12:09;;;;;;;4.63;2.40;;;17.90;99.90;;;;;;5015315;28;20234;-63
2022/08/24 01:14:35;;;;;;;2.55;2.15;;;17.90;99.90;;;;;;5014526;28;20219;-63
2022/08/24 01:19:53;;;;;;;3.22;2.35;;;17.90;99.90;;;;;;5015050;28;20689;-63
2022/08/24 01:22:49;;;;;;;3.95;2.42;;;17.80;99.90;;;;;;5015084;28;20213;-63
2022/08/24 01:25:17;;;;;;;3.22;2.45;;;17.80;99.90;;;;;;5015481;28;20217;-63
2022/08/24 01:27:45;;;;;;;3.03;2.30;;;17.70;99.90;;;;;;5015099;28;20226;-63
2022/08/24 01:30:14;;;;;;;3.28;2.20;;;17.70;99.90;;;;;;5015409;28;20297;-63
2022/08/24 01:32:41;;;;;;;4.45;2.40;;;17.60;99.90;;;;;;5015161;28;20215;-63
2022/08/24 01:35:09;;;;;;;2.45;2.20;;;17.60;99.90;;;;;;5015214;28;20231;-63
2022/08/24 01:37:36;;;;;;;4.47;2.25;;;17.50;99.90;;;;;;5015838;28;20258;-63
2022/08/24 01:40:07;;;;;;;3.10;2.50;;;17.50;99.90;;;;;;5015181;28;20231;-63
2022/08/24 01:42:36;;;;;;;2.85;2.42;;;17.50;99.90;;;;;;5015576;28;20209;-63
2022/08/24 01:45:06;;;;;;;2.67;2.30;;;17.50;99.90;;;;;;5015789;28;20210;-63
2022/08/24 01:47:33;;;;;;;4.53;2.45;;;17.50;99.90;;;;;;5015840;28;20607;-63
2022/08/24 01:50:02;;;;;;;4.55;2.60;;;17.40;99.90;;;;;;5016863;28;20260;-63
2022/08/24 01:52:28;;;;;;;3.65;2.25;;;17.30;99.90;;;;;;5016076;28;20671;-63
2022/08/24 01:54:55;;;;;;;3.38;2.55;;;17.30;99.90;;;;;;5016071;28;20317;-62
2022/08/24 01:57:24;;;;;;;3.78;2.10;;;17.30;99.90;;;;;;5015547;28;20714;-63
2022/08/24 01:59:53;;;;;;;2.67;2.33;;;17.30;99.90;;;;;;5016046;28;20203;-63
2022/08/24 02:02:24;;;;;;;7.05;2.50;;;17.30;99.90;;;;;;5016055;28;20214;-63
2022/08/24 02:04:51;;;;;;;3.37;2.40;;;17.30;99.90;;;;;;5015843;28;20198;-63
2022/08/24 02:07:18;;;;;;;2.95;2.30;;;17.30;99.90;;;;;;5014451;28;20266;-63
2022/08/24 02:09:45;;;;;;;5.35;2.20;;;17.30;99.90;;;;;;5014627;28;20207;-63
2022/08/24 02:12:12;;;;;;;2.60;2.20;;;17.40;99.90;;;;;;5014198;28;20210;-63
2022/08/24 02:14:40;;;;;;;3.78;2.45;;;17.30;99.90;;;;;;5014028;28;20233;-63
2022/08/24 02:17:09;;;;;;;4.88;2.72;;;17.40;99.90;;;;;;5013756;28;20211;-63
2022/08/24 02:19:36;;;;;;;5.47;2.40;;;17.40;99.90;;;;;;5014402;28;20206;-63
2022/08/24 02:22:04;;;;;;;4.57;2.35;;;17.30;99.90;;;;;;5013845;28;20203;-63
2022/08/24 02:24:32;;;;;;;2.35;2.15;;;17.20;99.90;;;;;;5014876;28;20207;-63
2022/08/24 02:27:00;;;;;;;4.70;2.67;;;17.10;99.90;;;;;;5014399;28;20238;-63
2022/08/24 02:29:26;;;;;;;4.40;2.97;;;17.10;99.90;;;;;;5014121;28;20595;-63
2022/08/24 02:31:53;;;;;;;5.82;3.10;;;17.10;99.90;;;;;;5014581;28;20214;-63
2022/08/24 02:34:22;;;;;;;4.20;2.40;;;17.10;99.90;;;;;;5014796;28;20262;-63
2022/08/24 02:36:48;;;;;;;4.72;2.58;;;17.00;99.90;;;;;;5014689;28;20210;-63
2022/08/24 02:39:15;;;;;;;3.70;2.50;;;16.90;99.90;;;;;;5014499;28;20617;-63
2022/08/24 02:41:42;;;;;;;3.20;2.40;;;16.90;99.90;;;;;;5015425;28;20206;-62
2022/08/24 02:44:09;;;;;;;2.83;2.35;;;16.90;99.90;;;;;;5017999;28;20207;-63
2022/08/24 02:46:36;;;;;;;4.57;2.50;;;16.80;99.90;;;;;;5018249;28;20203;-63
2022/08/24 02:49:04;;;;;;;3.20;2.60;;;16.80;99.90;;;;;;5018389;28;20230;-63
2022/08/24 02:51:33;;;;;;;3.43;2.47;;;16.70;99.90;;;;;;5017784;28;20218;-63
2022/08/24 02:54:02;;;;;;;4.13;2.30;;;16.60;99.90;;;;;;5017515;28;20223;-63
2022/08/24 02:56:29;;;;;;;3.33;2.27;;;16.60;99.90;;;;;;5016469;28;20352;-62
2022/08/24 02:58:57;;;;;;;3.57;2.50;;;16.60;99.90;;;;;;5015827;28;20265;-63
2022/08/24 03:01:24;;;;;;;2.53;2.20;;;16.60;99.90;;;;;;5017603;28;20246;-63
2022/08/24 03:03:51;;;;;;;2.70;2.20;;;16.50;99.90;;;;;;5017541;28;20207;-62
2022/08/24 03:06:19;;;;;;;3.60;2.30;;;16.50;99.90;;;;;;5016710;28;20203;-63
2022/08/24 03:08:47;;;;;;;3.05;2.20;;;16.50;99.90;;;;;;5016240;28;20643;-63
2022/08/24 03:11:15;;;;;;;4.40;2.50;;;16.40;99.90;;;;;;5016039;28;20215;-63
2022/08/24 03:13:42;;;;;;;3.13;2.45;;;16.50;99.90;;;;;;5015590;28;20237;-63
2022/08/24 03:16:08;;;;;;;2.67;2.40;;;16.40;99.90;;;;;;5015457;28;20571;-63
2022/08/24 03:18:36;;;;;;;2.83;2.50;;;16.40;99.90;;;;;;5015332;28;20314;-63
2022/08/24 03:21:04;;;;;;;4.17;2.60;;;16.30;99.90;;;;;;5015907;28;20210;-63
2022/08/24 03:23:31;;;;;;;4.07;2.58;;;16.30;99.90;;;;;;5015600;28;20233;-63
2022/08/24 03:26:01;;;;;;;4.63;2.50;;;16.20;99.90;;;;;;5018200;28;20211;-63
2022/08/24 03:28:29;;;;;;;2.70;2.15;;;16.10;99.90;;;;;;5019143;28;20288;-63
2022/08/24 03:30:56;;;;;;;2.40;2.20;;;16.10;99.90;;;;;;5019646;28;20686;-63
2022/08/24 03:33:23;;;;;;;5.10;2.50;;;16.10;99.90;;;;;;5019510;28;20589;-63
2022/08/24 03:35:51;;;;;;;3.87;2.50;;;16.10;99.90;;;;;;5019012;28;20310;-63
2022/08/24 03:38:18;;;;;;;4.17;2.20;;;16.10;99.90;;;;;;5019707;28;20238;-63
2022/08/24 03:40:45;;;;;;;4.07;2.60;;;16.10;99.90;;;;;;5019427;28;20234;-63
2022/08/24 03:43:44;;;;;;;3.43;2.50;;;16.10;99.90;;;;;;5019651;28;20248;-65
2022/08/24 03:46:01;;;;;;;3.10;2.57;;;16.10;99.90;;;;;;5018754;28;20207;-63
2022/08/24 03:48:28;;;;;;;3.58;2.30;;;16.00;99.90;;;;;;5018496;28;20292;-63
2022/08/24 03:50:55;;;;;;;4.20;2.63;;;16.00;99.90;;;;;;5018297;28;20576;-63
2022/08/24 03:53:23;;;;;;;4.60;2.37;;;16.00;99.90;;;;;;5018686;28;20257;-63
2022/08/24 03:55:50;;;;;;;4.83;2.57;;;16.00;99.90;;;;;;5018763;28;20280;-63
2022/08/24 03:58:18;;;;;;;4.30;2.30;;;16.10;99.90;;;;;;5018652;28;20285;-63
2022/08/24 04:00:45;;;;;;;4.07;2.20;;;16.10;99.90;;;;;;5019562;28;20206;-63
2022/08/24 04:03:13;;;;;;;2.43;2.23;;;16.10;99.90;;;;;;5018102;28;20703;-63
2022/08/24 04:05:41;;;;;;;2.77;2.50;;;16.10;99.90;;;;;;5019039;28;20596;-63
2022/08/24 04:08:08;;;;;;;2.90;2.40;;;16.10;99.90;;;;;;5036948;22;20225;-61
2022/08/24 04:10:35;;;;;;;3.80;2.23;;;16.10;99.90;;;;;;5053798;28;20688;-61
2022/08/24 04:13:01;;;;;;;3.58;2.42;;;16.10;99.90;;;;;;5053892;28;20206;-61
2022/08/24 04:15:31;;;;;;;4.30;2.70;;;16.00;99.90;;;;;;5053697;28;20229;-61
2022/08/24 04:17:58;;;;;;;4.07;2.20;;;16.00;99.90;;;;;;5053263;28;20626;-60
2022/08/24 04:20:24;;;;;;;3.80;2.58;;;16.00;99.90;;;;;;5053945;28;20208;-60
2022/08/24 04:22:52;;;;;;;2.43;2.20;;;16.00;99.90;;;;;;5053890;28;20526;-60
2022/08/24 04:25:18;;;;;;;4.13;2.60;;;16.00;99.90;;;;;;5053705;28;20198;-61
2022/08/24 04:27:45;;;;;;;3.80;2.37;;;16.00;99.90;;;;;;5053566;28;20206;-60
2022/08/24 04:30:13;;;;;;;6.10;2.53;;;16.10;99.90;;;;;;5053878;28;20252;-60
2022/08/24 04:32:42;;;;;;;3.07;2.33;;;16.10;99.90;;;;;;5053896;28;20316;-60
2022/08/24 04:35:09;;;;;;;7.03;2.50;;;16.10;99.90;;;;;;5053414;28;20248;-60
2022/08/24 04:37:36;;;;;;;4.80;2.20;;;16.00;99.90;;;;;;5053845;28;20212;-60
2022/08/24 04:40:04;;;;;;;2.80;2.30;;;16.10;99.90;;;;;;5053763;28;20704;-60
2022/08/24 04:42:31;;;;;;;4.93;2.40;;;16.10;99.90;;;;;;5053778;28;20205;-60
2022/08/24 04:44:58;;;;;;;3.57;2.27;;;16.20;99.90;;;;;;5053431;28;20207;-60
2022/08/24 04:47:25;;;;;;;2.85;2.55;;;16.20;99.90;;;;;;5053668;28;20217;-60
2022/08/24 04:49:53;;;;;;;2.50;2.30;;;16.20;99.90;;;;;;5053270;28;20225;-60
2022/08/24 04:52:20;;;;;;;3.27;2.90;;;16.30;99.90;;;;;;5053459;28;20209;-60
2022/08/24 04:54:46;;;;;;;4.80;2.17;;;16.30;99.90;;;;;;5052943;28;20213;-61
2022/08/24 04:57:13;;;;;;;4.87;2.67;;;16.50;99.90;;;;;;5053081;28;20205;-61
2022/08/24 04:59:42;;;;;;;4.83;2.70;;;16.50;99.90;;;;;;5052783;28;20725;-61
2022/08/24 05:02:09;;;;;;;6.82;2.80;;;16.60;99.90;;;;;;5053199;28;20213;-61
2022/08/24 05:04:36;;;;;;;4.03;2.70;;;16.80;99.90;;;;;;5053192;28;20210;-61
2022/08/24 05:07:04;;;;;;;5.13;2.80;;;16.90;99.90;;;;;;5052978;28;20301;-61
2022/08/24 05:09:31;;;;;;;7.65;2.78;;;17.00;99.90;;;;;;5052632;28;20245;-61
2022/08/24 05:11:58;;;;;;;5.82;2.70;;;17.10;99.90;;;;;;5052856;28;20297;-60
2022/08/24 05:14:25;;;;;;;12.35;2.90;;;17.30;99.90;;;;;;5052750;28;20201;-60
2022/08/24 05:16:51;;;;;;;7.35;3.20;;;17.30;99.90;;;;;;5052686;28;20270;-59
2022/08/24 05:19:18;;;;;;;3.92;2.67;;;17.50;99.90;;;;;;5052549;28;20271;-60
2022/08/24 05:21:45;;;;;;;3.45;2.70;;;17.60;99.90;;;;;;5052828;28;20213;-59
2022/08/24 05:24:13;;;;;;;2.88;2.47;;;17.70;99.90;;;;;;5052512;28;20206;-59
2022/08/24 05:26:40;;;;;;;5.28;2.65;;;17.80;99.90;;;;;;5052425;28;20247;-60
2022/08/24 05:29:06;;;;;;;5.32;2.60;;;17.80;99.90;;;;;;5052145;28;20245;-59
2022/08/24 05:31:34;;;;;;;2.53;2.03;;;18.00;99.90;;;;;;5052321;28;20641;-59
2022/08/24 05:34:02;;;;;;;4.45;2.20;;;18.00;99.90;;;;;;5052573;28;20239;-60
2022/08/24 05:36:31;;;;;;;4.95;2.72;;;18.20;99.90;;;;;;5052337;28;20283;-60
2022/08/24 05:38:59;;;;;;;8.07;2.30;;;18.30;99.90;;;;;;5052052;28;20225;-60
2022/08/24 05:41:28;;;;;;;3.13;2.00;;;18.50;99.90;;;;;;5052193;28;20297;-60
2022/08/24 05:43:55;;;;;;;5.97;2.60;;;18.70;99.90;;;;;;5051792;28;20673;-60
2022/08/24 05:46:22;;;;;;;7.32;2.40;;;19.30;99.90;;;;;;5052003;28;20204;-60
2022/08/24 05:48:49;;;;;;;6.00;2.20;;;20.80;99.90;;;;;;5051424;28;20294;-60
2022/08/24 05:51:16;;;;;;;9.00;3.20;;;22.60;99.90;;;;;;5052197;28;20213;-61
2022/08/24 05:53:43;;;;;;;12.20;2.53;;;24.30;99.10;;;;;;5052007;28;20208;-60
2022/08/24 05:56:12;;;;;;;6.40;2.50;;;25.80;95.00;;;;;;5052213;28;20321;-60
2022/08/24 05:58:40;;;;;;;12.70;2.40;;;27.10;90.90;;;;;;5051874;28;20225;-61
2022/08/24 06:01:09;;;;;;;8.75;2.45;;;28.40;87.20;;;;;;5051829;28;20664;-60
2022/08/24 06:03:36;;;;;;;5.97;2.15;;;29.50;82.70;;;;;;5051770;28;20248;-60
2022/08/24 06:06:05;;;;;;;9.48;2.50;;;30.50;75.60;;;;;;5051810;28;20615;-61
2022/08/24 06:08:32;;;;;;;5.40;2.20;;;31.40;69.90;;;;;;5051482;28;20617;-61
2022/08/24 06:10:59;;;;;;;8.27;2.40;;;32.20;65.90;;;;;;5052151;28;20387;-61
2022/08/24 06:13:27;;;;;;;9.45;2.20;;;32.80;63.20;;;;;;5051938;28;20209;-61
2022/08/24 06:16:04;;;;;;;3.53;2.22;;;33.70;60.90;;;;;;5051831;28;20267;-60
2022/08/24 06:18:31;;;;;;;5.43;2.50;;;33.90;58.00;;;;;;5051553;28;20504;-60
2022/08/24 06:20:58;;;;;;;3.05;2.00;;;34.20;58.20;;;;;;5051695;28;20209;-60
2022/08/24 06:23:24;;;;;;;5.10;2.35;;;34.90;56.60;;;;;;5052019;28;20213;-60
2022/08/24 06:28:47;;;;;;;2.97;2.10;;;36.00;53.70;;;;;;5029088;28;20221;-60
2022/08/24 06:31:15;;;;;;;5.82;2.47;;;36.00;52.80;;;;;;5046367;28;20610;-59
2022/08/24 06:33:41;;;;;;;3.00;1.80;;;36.20;52.20;;;;;;5051667;28;20209;-59
2022/08/24 06:36:08;;;;;;;7.03;2.15;;;36.60;51.00;;;;;;5051583;28;20232;-59
2022/08/24 06:38:35;;;;;;;2.70;1.80;;;36.80;50.40;;;;;;5051439;28;20229;-60
2022/08/24 06:41:02;;;;;;;3.63;1.95;;;37.40;49.30;;;;;;5051635;28;20244;-59
2022/08/24 06:43:29;;;;;;;2.65;1.88;;;37.90;48.50;;;;;;5051446;28;20205;-59
2022/08/24 06:45:57;;;;;;;3.88;2.03;;;37.70;47.20;;;;;;5049068;28;20201;-64
2022/08/24 06:48:25;;;;;;;3.63;1.77;;;36.60;48.40;;;;;;5050134;28;20631;-66
2022/08/24 06:50:53;;;;;;;2.63;1.58;;;36.00;49.40;;;;;;5050763;28;20300;-64
2022/08/24 06:53:20;;;;;;;7.60;1.80;;;36.10;48.40;;;;;;5050565;28;20641;-64
2022/08/24 06:55:47;;;;;;;3.25;1.90;;;36.40;48.20;;;;;;5049980;28;20217;-65
2022/08/24 06:58:14;;;;;;;2.35;1.73;;;37.00;47.70;;;;;;5050405;28;20641;-66
2022/08/24 07:00:41;;;;;;;3.28;1.63;;;37.40;46.90;;;;;;5054208;28;20209;-64
2022/08/24 07:03:08;;;;;;;6.60;1.80;;;37.60;46.30;;;;;;5054359;28;20542;-65
2022/08/24 07:05:36;;;;;;;3.35;1.52;;;37.40;46.00;;;;;;5054776;28;20240;-60
2022/08/24 07:08:04;;;;;;;4.80;1.67;;;36.60;47.40;;;;;;5054573;28;20226;-60
2022/08/24 07:10:32;;;;;;;2.08;1.60;;;36.70;47.10;;;;;;5054883;28;20567;-60
2022/08/24 07:12:59;;;;;;;2.65;1.60;;;37.30;46.40;;;;;;5055077;28;20213;-60
2022/08/24 07:15:26;;;;;;;1.67;1.58;;;38.30;44.90;;;;;;5054866;28;20231;-60
2022/08/24 07:17:53;;;;;;;2.83;1.50;;;38.90;44.20;;;;;;5054863;28;20297;-60
2022/08/24 07:20:20;;;;;;;4.90;1.52;;;39.50;43.10;;;;;;5054804;28;20206;-60
2022/08/24 07:22:48;;;;;;;2.90;1.65;;;39.00;42.70;;;;;;5054940;28;20213;-60
2022/08/24 07:25:14;;;;;;;1.90;1.58;;;38.10;43.10;;;;;;5056013;28;20209;-59
2022/08/24 07:27:41;;;;;;;1.63;1.30;;;37.50;44.00;;;;;;5054915;28;20292;-59
2022/08/24 07:30:09;;;;;;;2.75;1.30;;;37.40;44.30;;;;;;5054778;28;20568;-59
2022/08/24 07:32:36;;;;;;;1.33;1.23;;;37.50;43.80;;;;;;5054837;28;20255;-59
2022/08/24 07:35:02;;;;;;;2.70;1.50;;;37.40;43.80;;;;;;5054962;28;20206;-59
2022/08/24 07:37:29;;;;;;;2.58;1.27;;;37.50;43.50;;;;;;5054775;28;20226;-59
2022/08/24 07:39:57;;;;;;;1.35;1.23;;;37.90;43.20;;;;;;5054298;28;20233;-59
2022/08/24 07:42:24;;;;;;;1.63;1.33;;;38.40;42.70;;;;;;5054900;28;20241;-59
2022/08/24 07:44:51;;;;;;;1.95;1.25;;;38.80;41.90;;;;;;5054571;28;20263;-59
2022/08/24 07:47:18;;;;;;;1.65;1.40;;;38.80;42.20;;;;;;5054942;28;20292;-59
2022/08/24 07:49:45;;;;;;;2.97;1.40;;;38.80;41.90;;;;;;5054399;28;20312;-59
2022/08/24 07:52:12;;;;;;;2.97;1.55;;;38.50;42.20;;;;;;5054233;28;20209;-59
2022/08/24 07:54:39;;;;;;;2.35;1.40;;;38.60;42.00;;;;;;5054191;28;20259;-59
2022/08/24 07:57:07;;;;;;;4.30;1.50;;;38.70;41.70;;;;;;5054330;28;20709;-59
2022/08/24 07:59:34;;;;;;;3.53;1.55;;;38.70;41.90;;;;;;5054626;28;20638;-59
2022/08/24 08:02:01;;;;;;;3.53;1.60;;;38.90;41.80;;;;;;5054673;28;20206;-59
2022/08/24 08:04:30;;;;;;;2.47;1.52;;;39.20;41.70;;;;;;5054456;28;20209;-59
2022/08/24 08:06:59;;;;;;;1.90;1.38;;;39.40;41.00;;;;;;5054394;28;20251;-59
2022/08/24 08:09:26;;;;;;;2.33;1.50;;;39.60;40.90;;;;;;5053952;28;20241;-59
2022/08/24 08:11:53;;;;;;;2.63;1.63;;;39.90;40.30;;;;;;5053333;28;20681;-59
2022/08/24 08:14:21;;;;;;;4.45;2.97;;;40.10;40.10;;;;;;5054156;28;20206;-59
2022/08/24 08:16:48;;;;;;;3.60;1.58;;;40.50;39.60;;;;;;5053757;28;20230;-59
2022/08/24 08:19:15;;;;;;;2.22;1.65;;;40.50;39.30;;;;;;5053510;28;20604;-59
2022/08/24 08:24:27;;;;;;;3.38;1.80;;;39.50;40.50;;;;;;5053844;28;20668;-59
2022/08/24 08:26:53;;;;;;;1.98;1.42;;;38.00;42.10;;;;;;5053706;28;20225;-59
2022/08/24 08:29:23;;;;;;;3.08;1.55;;;36.60;43.80;;;;;;5053399;28;20234;-59
2022/08/24 08:31:50;;;;;;;4.72;1.83;;;35.30;45.90;;;;;;5053761;28;20210;-59
2022/08/24 08:34:17;;;;;;;3.25;1.60;;;34.00;47.70;;;;;;5053613;28;20235;-59
2022/08/24 08:36:44;;;;;;;6.55;2.20;;;32.80;49.70;;;;;;5053547;28;20225;-59
2022/08/24 08:39:14;;;;;;;3.90;2.03;;;31.50;52.00;;;;;;5053312;28;20228;-59
2022/08/24 08:42:16;;;;;;;3.45;1.75;;;30.70;54.20;;;;;;5053515;28;20202;-59
2022/08/24 08:45:05;;;;;;;10.00;2.28;;;30.10;54.80;;;;;;5054241;28;20205;-59
2022/08/24 08:47:59;;;;;;;8.55;2.00;;;29.70;55.70;;;;;;5053601;28;20243;-59
2022/08/24 08:50:29;;;;;;;2.47;1.75;;;29.30;56.80;;;;;;5020242;28;20259;-58
2022/08/24 08:53:17;;;;;;;3.17;1.50;;;29.00;57.70;;;;;;5053555;28;20228;-59
2022/08/24 08:55:52;;;;;;;5.00;1.80;;;28.80;57.90;;;;;;5053473;28;20267;-59
2022/08/24 08:58:47;;;;;;;2.63;1.60;;;28.80;58.50;;;;;;5053041;28;20255;-59
2022/08/24 09:01:22;;;;;;;5.47;1.80;;;28.60;58.80;;;;;;5053127;28;20251;-59
2022/08/24 09:04:25;;;;;;;5.60;1.65;;;28.30;59.20;;;;;;5053355;28;20213;-59
2022/08/24 09:07:18;;;;;;;3.75;1.70;;;28.20;59.20;;;;;;5027407;28;20209;-59
2022/08/24 09:10:23;;;;;;;2.35;1.38;;;28.20;59.50;;;;;;5052524;28;20233;-59
2022/08/24 09:13:11;;;;;;;5.10;1.95;;;28.30;59.30;;;;;;5017020;28;20213;-59
2022/08/24 09:15:58;;;;;;;2.25;1.17;;;28.30;60.00;;;;;;5052673;28;20244;-59
2022/08/24 09:18:40;;;;;;;3.28;1.55;;;28.30;59.80;;;;;;5052475;28;20282;-59
2022/08/24 09:21:32;;;;;;;1.35;1.25;;;28.30;60.10;;;;;;5052918;28;20395;-57
2022/08/24 09:24:13;;;;;;;2.35;1.38;;;28.30;59.60;;;;;;5052233;28;20335;-57
2022/08/24 09:26:54;;;;;;;2.10;1.30;;;28.30;59.70;;;;;;5052498;28;20677;-58
2022/08/24 09:29:31;;;;;;;1.55;1.30;;;28.30;59.20;;;;;;5052235;28;20229;-56
2022/08/24 09:32:07;;;;;;;2.72;1.50;;;28.40;59.30;;;;;;5052479;28;20209;-59
2022/08/24 09:34:42;;;;;;;3.00;1.20;;;28.50;58.90;;;;;;5052237;28;20212;-58
2022/08/24 09:37:31;;;;;;;2.40;1.08;;;28.50;57.00;;;;;;5052374;28;20731;-57
2022/08/24 09:40:02;;;;;;;3.20;1.33;;;28.70;56.40;;;;;;5052499;28;20324;-57
2022/08/24 09:43:01;;;;;;;1.50;1.40;;;28.60;56.70;;;;;;5052297;28;20211;-57
2022/08/24 09:45:50;;;;;;;1.88;1.30;;;28.60;56.30;;;;;;5052861;28;20223;-59
2022/08/24 09:48:36;;;;;;;1.33;1.13;;;28.60;56.40;;;;;;5052192;28;20713;-57
2022/08/24 09:51:33;;;;;;;3.17;1.42;;;28.60;56.00;;;;;;5052505;28;20216;-57
2022/08/24 09:54:35;;;;;;;1.70;1.35;;;28.80;54.90;;;;;;5052476;28;20209;-58
2022/08/24 09:57:26;;;;;;;2.67;1.42;;;28.90;55.10;;;;;;5052285;28;20358;-58
2022/08/24 10:00:09;;;;;;;1.80;1.15;;;28.90;54.90;;;;;;5051974;28;20316;-58
2022/08/24 10:02:52;;;;;;;1.20;1.10;;;28.90;55.80;;;;;;5053072;28;20209;-58
2022/08/24 10:05:28;;;;;;;1.88;1.23;;;29.00;56.70;;;;;;5053253;28;20205;-59
2022/08/24 10:08:04;;;;;;;3.45;1.45;;;29.00;57.60;;;;;;5052700;28;20728;-58
2022/08/24 10:10:44;;;;;;;2.42;1.42;;;29.00;57.50;;;;;;5077220;22;20704;-63
2022/08/24 10:13:24;;;;;;;3.95;1.40;;;29.10;56.30;;;;;;5034330;28;20210;-63
2022/08/24 10:16:05;;;;;;;1.20;1.10;;;29.10;55.30;;;;;;5034476;28;20293;-63
2022/08/24 10:18:45;;;;;;;2.88;1.20;;;29.20;55.10;;;;;;5033864;28;20601;-63
2022/08/24 10:21:39;;;;;;;1.10;1.00;;;29.20;56.00;;;;;;5034698;28;20634;-62
2022/08/24 10:24:19;;;;;;;2.78;1.20;;;29.30;56.40;;;;;;5035416;28;20218;-63
2022/08/24 10:27:08;;;;;;;2.13;1.23;;;29.30;56.40;;;;;;5034760;28;20209;-63
2022/08/24 10:29:57;;;;;;;1.48;1.10;;;29.40;56.10;;;;;;5034684;28;20769;-63
2022/08/24 10:32:40;;;;;;;1.55;1.30;;;29.40;56.20;;;;;;5035126;28;20700;-63
2022/08/24 10:35:13;;;;;;;1.92;1.35;;;29.50;56.30;;;;;;5038931;28;20220;-63
2022/08/24 10:39:39;;;;;;;2.40;1.00;;;29.50;55.70;;;;;;5039356;28;20705;-62
2022/08/24 10:40:48;;;;;;;1.45;1.13;;;29.60;55.80;;;;;;5038182;28;20232;-63
2022/08/24 10:43:36;;;;;;;2.03;1.17;;;29.60;55.80;;;;;;5038394;28;20721;-63
2022/08/24 10:46:35;;;;;;;3.90;1.48;;;29.60;54.90;;;;;;5039775;28;20214;-64
2022/08/24 10:49:24;;;;;;;1.50;1.40;;;29.60;55.10;;;;;;5038533;28;20283;-63
2022/08/24 10:52:24;;;;;;;3.33;1.25;;;29.70;55.70;;;;;;5038633;28;20198;-63
2022/08/24 10:54:51;;;;;;;1.85;1.38;;;29.80;54.10;;;;;;5038122;28;20210;-63
2022/08/24 10:57:27;;;;;;;2.75;1.40;;;29.80;54.90;;;;;;5037655;28;20870;-63
2022/08/24 11:00:02;;;;;;;1.60;1.25;;;29.90;54.50;;;;;;5038002;28;20225;-63
2022/08/24 11:02:32;;;;;;;1.55;1.42;;;30.00;54.30;;;;;;5039378;28;20241;-62
2022/08/24 11:05:00;;;;;;;1.30;1.20;;;30.20;55.10;;;;;;5037839;28;20662;-62
2022/08/24 11:07:27;;;;;;;1.90;1.15;;;30.30;54.30;;;;;;5038029;28;20202;-62
2022/08/24 11:09:57;;;;;;;1.73;1.20;;;30.40;53.20;;;;;;5037391;28;20266;-62
2022/08/24 11:12:30;;;;;;;3.47;1.17;;;30.40;53.10;;;;;;5037191;28;20241;-62
2022/08/24 11:14:59;;;;;;;3.50;1.42;;;30.40;53.30;;;;;;5036431;28;20216;-62
2022/08/24 11:17:28;;;;;;;4.00;1.20;;;30.40;53.20;;;;;;5037629;28;20226;-63
2022/08/24 11:19:56;;;;;;;1.30;1.10;;;30.50;53.00;;;;;;5037860;28;20237;-63
2022/08/24 11:22:56;;;;;;;1.17;1.00;;;30.60;53.50;;;;;;5036796;28;20233;-63
2022/08/24 11:25:27;;;;;;;2.00;1.30;;;30.60;51.40;;;;;;5037314;28;20229;-63
2022/08/24 11:28:04;;;;;;;1.42;1.30;;;30.70;51.60;;;;;;5038670;28;20278;-62
2022/08/24 11:30:31;;;;;;;2.92;1.10;;;30.80;51.40;;;;;;5037057;28;20229;-62
2022/08/24 11:33:00;;;;;;;2.25;1.60;;;30.80;50.90;;;;;;5037583;28;20214;-62
2022/08/24 11:35:35;;;;;;;1.20;1.10;;;30.90;51.30;;;;;;5037199;28;20674;-62
2022/08/24 11:38:08;;;;;;;2.85;1.30;;;30.90;50.60;;;;;;5036602;28;20230;-66
2022/08/24 11:40:40;;;;;;;1.58;1.20;;;30.90;52.10;;;;;;5037079;28;20277;-62
2022/08/24 11:43:21;;;;;;;1.67;1.13;;;30.90;51.00;;;;;;5037736;28;20206;-63
2022/08/24 11:46:03;;;;;;;2.22;1.48;;;30.80;50.30;;;;;;5036152;28;20216;-63
2022/08/24 11:48:42;;;;;;;1.58;1.40;;;31.00;50.50;;;;;;5037300;28;20691;-62
2022/08/24 11:51:15;;;;;;;2.03;1.20;;;31.00;50.50;;;;;;5036329;28;20214;-62
2022/08/24 11:53:59;;;;;;;1.55;1.27;;;31.00;50.50;;;;;;5036859;28;20218;-62
2022/08/24 11:56:33;;;;;;;1.70;1.17;;;31.10;49.90;;;;;;5037568;28;20198;-63
2022/08/24 11:59:06;;;;;;;2.63;1.42;;;31.10;49.30;;;;;;5037138;28;20230;-63
2022/08/24 12:01:38;;;;;;;1.55;1.17;;;31.10;50.00;;;;;;5037317;28;20206;-62
2022/08/24 12:04:22;;;;;;;1.45;1.23;;;31.20;49.20;;;;;;5037150;28;20213;-62
2022/08/24 12:06:59;;;;;;;1.58;1.15;;;31.00;49.50;;;;;;5036677;28;20213;-64
2022/08/24 12:09:42;;;;;;;1.30;1.08;;;30.80;50.60;;;;;;5036274;28;20244;-63
2022/08/24 12:12:16;;;;;;;2.13;1.30;;;30.70;51.40;;;;;;5036430;28;20209;-62
2022/08/24 12:14:51;;;;;;;1.35;1.10;;;30.80;51.10;;;;;;5036388;28;20656;-62
2022/08/24 12:17:25;;;;;;;1.65;1.08;;;31.00;51.10;;;;;;5036620;28;20464;-63
2022/08/24 12:19:56;;;;;;;1.80;1.17;;;31.20;50.60;;;;;;5036059;28;20229;-61
2022/08/24 12:22:24;;;;;;;2.08;1.27;;;31.40;50.10;;;;;;5036377;28;20217;-62
2022/08/24 12:24:54;;;;;;;2.72;2.00;;;31.40;49.60;;;;;;5036696;28;20233;-62
2022/08/24 12:27:24;;;;;;;2.83;1.45;;;31.60;49.20;;;;;;5036315;28;20212;-62
2022/08/24 12:30:00;;;;;;;1.35;1.02;;;31.80;48.80;;;;;;5036018;28;20230;-61
2022/08/24 12:32:33;;;;;;;2.53;1.17;;;31.90;48.60;;;;;;5036010;28;20217;-61
2022/08/24 12:35:05;;;;;;;1.55;1.17;;;31.90;48.60;;;;;;5036047;28;20241;-62
2022/08/24 12:37:36;;;;;;;1.48;1.17;;;31.90;48.90;;;;;;5035336;28;20234;-61
2022/08/24 12:40:12;;;;;;;1.77;1.48;;;32.00;49.00;;;;;;5035200;28;20254;-61
2022/08/24 12:42:45;;;;;;;3.25;1.08;;;32.10;48.70;;;;;;5035507;28;20206;-62
2022/08/24 12:45:17;;;;;;;4.10;1.30;;;32.30;49.00;;;;;;5035014;28;20210;-62
2022/08/24 12:47:50;;;;;;;2.08;1.23;;;32.20;49.40;;;;;;5035133;28;20206;-61
2022/08/24 12:50:27;;;;;;;2.40;1.20;;;32.00;49.80;;;;;;5034613;28;20278;-61
2022/08/24 12:53:23;;;;;;;2.60;1.35;;;31.90;50.60;;;;;;5035106;28;20236;-61
2022/08/24 12:56:05;;;;;;;1.65;1.40;;;31.80;50.60;;;;;;5033083;28;20244;-61
2022/08/24 12:58:55;;;;;;;1.60;1.33;;;31.70;50.90;;;;;;5034375;28;20230;-60
2022/08/24 13:01:27;;;;;;;1.63;1.30;;;31.50;51.10;;;;;;5033399;28;20213;-61
2022/08/24 13:04:12;;;;;;;1.52;1.33;;;31.40;51.20;;;;;;5035795;28;20206;-61
2022/08/24 13:06:43;;;;;;;2.63;1.10;;;31.30;51.00;;;;;;5035684;28;20213;-61
2022/08/24 13:09:17;;;;;;;2.83;1.48;;;31.30;51.00;;;;;;5036439;28;20240;-60
2022/08/24 13:11:44;;;;;;;3.55;1.40;;;31.30;51.60;;;;;;5037226;28;20690;-60
2022/08/24 13:14:20;;;;;;;1.40;1.30;;;31.20;51.60;;;;;;5037671;28;20203;-60
2022/08/24 13:17:11;;;;;;;2.13;1.38;;;31.30;52.00;;;;;;5037334;28;20202;-60